sensor_id;sensor_type;location;lat;lon;timestamp;temperature;humidity
24518;DHT22;12678;51.336;12.406;2022-09-09T01:49:49;19.80;99.90
24518;DHT22;12678;51.336;12.406;2022-09-09T01:52:14;17.90;99.90
24518;DHT22;12678;51.336;12.406;2022-09-09T01:54:39;18.30;99.90
24518;DHT22;12678;51.336;12.406;2022-09-09T02:04:48;18.40;99.90
24518;DHT22;12678;51.336;12.406;2022-09-09T02:07:28;18.40;99.90
24518;DHT22;12678;51.336;12.406;2022-09-09T02:09:57;18.40;99.90
24518;DHT22;12678;51.336;12.406;2022-09-09T02:12:24;18.50;99.90
24518;DHT22;12678;51.336;12.406;2022-09-09T02:14:53;18.20;99.90
24518;DHT22;12678;51.336;12.406;2022-09-09T02:17:22;18.10;99.90
24518;DHT22;12678;51.336;12.406;2022-09-09T02:19:52;17.90;99.90
24518;DHT22;12678;51.336;12.406;2022-09-09T02:22:19;18.20;99.90
24518;DHT22;12678;51.336;12.406;2022-09-09T02:24:46;18.50;99.90
24518;DHT22;12678;51.336;12.406;2022-09-09T02:27:12;18.70;99.90
24518;DHT22;12678;51.336;12.406;2022-09-09T02:29:42;18.80;99.90
24518;DHT22;12678;51.336;12.406;2022-09-09T02:32:09;18.60;99.90
24518;DHT22;12678;51.336;12.406;2022-09-09T02:34:36;18.50;99.90
24518;DHT22;12678;51.336;12.406;2022-09-09T02:37:05;18.80;99.90
24518;DHT22;12678;51.336;12.406;2022-09-09T02:39:32;19.10;99.90
24518;DHT22;12678;51.336;12.406;2022-09-09T02:41:57;19.00;99.90
24518;DHT22;12678;51.336;12.406;2022-09-09T02:44:22;18.70;99.90
24518;DHT22;12678;51.336;12.406;2022-09-09T02:49:23;18.70;99.90
24518;DHT22;12678;51.336;12.406;2022-09-09T02:51:53;18.90;99.90
24518;DHT22;12678;51.336;12.406;2022-09-09T02:56:52;18.90;99.90
24518;DHT22;12678;51.336;12.406;2022-09-09T02:59:20;18.70;99.90
24518;DHT22;12678;51.336;12.406;2022-09-09T03:01:46;18.60;99.90
24518;DHT22;12678;51.336;12.406;2022-09-09T03:04:12;18.40;99.90
24518;DHT22;12678;51.336;12.406;2022-09-09T03:06:38;18.40;99.90
24518;DHT22;12678;51.336;12.406;2022-09-09T03:09:03;18.70;99.90
24518;DHT22;12678;51.336;12.406;2022-09-09T03:11:28;18.50;99.90
24518;DHT22;12678;51.336;12.406;2022-09-09T03:13:54;18.40;99.90
24518;DHT22;12678;51.336;12.406;2022-09-09T03:16:24;18.30;99.90
24518;DHT22;12678;51.336;12.406;2022-09-09T03:18:49;18.30;99.90
24518;DHT22;12678;51.336;12.406;2022-09-09T03:21:15;18.50;99.90
24518;DHT22;12678;51.336;12.406;2022-09-09T03:23:40;18.60;99.90
24518;DHT22;12678;51.336;12.406;2022-09-09T03:26:06;18.70;99.90
24518;DHT22;12678;51.336;12.406;2022-09-09T03:28:32;18.60;99.90
24518;DHT22;12678;51.336;12.406;2022-09-09T03:30:59;18.50;99.90
24518;DHT22;12678;51.336;12.406;2022-09-09T03:33:24;18.40;99.90
24518;DHT22;12678;51.336;12.406;2022-09-09T03:35:50;18.20;99.90
24518;DHT22;12678;51.336;12.406;2022-09-09T03:38:15;18.40;99.90
24518;DHT22;12678;51.336;12.406;2022-09-09T03:40:50;18.50;99.90
24518;DHT22;12678;51.336;12.406;2022-09-09T03:43:16;18.40;99.90
24518;DHT22;12678;51.336;12.406;2022-09-09T03:45:45;18.50;99.90
24518;DHT22;12678;51.336;12.406;2022-09-09T03:48:12;18.60;99.90
24518;DHT22;12678;51.336;12.406;2022-09-09T03:50:38;18.20;99.90
24518;DHT22;12678;51.336;12.406;2022-09-09T03:53:03;18.10;99.90
24518;DHT22;12678;51.336;12.406;2022-09-09T03:55:31;18.10;99.90
24518;DHT22;12678;51.336;12.406;2022-09-09T03:57:57;17.90;99.90
24518;DHT22;12678;51.336;12.406;2022-09-09T04:00:23;17.90;99.90
24518;DHT22;12678;51.336;12.406;2022-09-09T04:02:49;18.30;99.90
24518;DHT22;12678;51.336;12.406;2022-09-09T04:05:15;18.40;99.90
24518;DHT22;12678;51.336;12.406;2022-09-09T04:07:40;18.70;99.90
24518;DHT22;12678;51.336;12.406;2022-09-09T04:10:06;18.90;99.90
24518;DHT22;12678;51.336;12.406;2022-09-09T04:12:33;19.10;99.90
24518;DHT22;12678;51.336;12.406;2022-09-09T04:15:00;19.30;99.90
24518;DHT22;12678;51.336;12.406;2022-09-09T04:17:27;19.40;99.90
24518;DHT22;12678;51.336;12.406;2022-09-09T04:19:52;19.60;99.90
24518;DHT22;12678;51.336;12.406;2022-09-09T04:22:18;19.40;99.90
24518;DHT22;12678;51.336;12.406;2022-09-09T04:24:43;19.70;99.90
24518;DHT22;12678;51.336;12.406;2022-09-09T04:27:09;19.80;99.90
24518;DHT22;12678;51.336;12.406;2022-09-09T04:29:34;19.70;99.90
24518;DHT22;12678;51.336;12.406;2022-09-09T04:32:00;19.80;99.90
24518;DHT22;12678;51.336;12.406;2022-09-09T04:34:25;19.70;99.90
24518;DHT22;12678;51.336;12.406;2022-09-09T04:36:51;19.80;99.90
24518;DHT22;12678;51.336;12.406;2022-09-09T04:39:22;19.80;99.90
24518;DHT22;12678;51.336;12.406;2022-09-09T04:41:47;19.70;99.90
24518;DHT22;12678;51.336;12.406;2022-09-09T04:44:13;19.30;99.90
24518;DHT22;12678;51.336;12.406;2022-09-09T04:46:39;19.30;99.90
24518;DHT22;12678;51.336;12.406;2022-09-09T04:49:06;19.20;99.90
24518;DHT22;12678;51.336;12.406;2022-09-09T04:51:32;19.30;99.90
24518;DHT22;12678;51.336;12.406;2022-09-09T04:53:57;19.40;99.90
24518;DHT22;12678;51.336;12.406;2022-09-09T04:56:23;19.30;99.90
24518;DHT22;12678;51.336;12.406;2022-09-09T04:58:48;18.90;99.90
24518;DHT22;12678;51.336;12.406;2022-09-09T05:01:15;18.90;99.90
24518;DHT22;12678;51.336;12.406;2022-09-09T05:03:42;19.40;99.90
24518;DHT22;12678;51.336;12.406;2022-09-09T05:06:11;19.70;99.90
24518;DHT22;12678;51.336;12.406;2022-09-09T05:08:37;19.90;99.90
24518;DHT22;12678;51.336;12.406;2022-09-09T05:11:16;19.90;99.90
24518;DHT22;12678;51.336;12.406;2022-09-09T05:13:42;19.90;99.90
24518;DHT22;12678;51.336;12.406;2022-09-09T05:16:07;19.80;99.90
24518;DHT22;12678;51.336;12.406;2022-09-09T05:18:36;19.80;99.90
24518;DHT22;12678;51.336;12.406;2022-09-09T05:21:02;20.00;99.90
24518;DHT22;12678;51.336;12.406;2022-09-09T05:23:27;20.00;99.90
24518;DHT22;12678;51.336;12.406;2022-09-09T05:25:54;19.90;99.90
24518;DHT22;12678;51.336;12.406;2022-09-09T05:28:20;19.60;99.90
24518;DHT22;12678;51.336;12.406;2022-09-09T05:30:45;19.70;99.90
24518;DHT22;12678;51.336;12.406;2022-09-09T05:33:11;20.00;99.90
24518;DHT22;12678;51.336;12.406;2022-09-09T05:35:36;19.90;99.90
24518;DHT22;12678;51.336;12.406;2022-09-09T05:38:03;20.00;99.90
24518;DHT22;12678;51.336;12.406;2022-09-09T05:40:29;20.00;99.90
24518;DHT22;12678;51.336;12.406;2022-09-09T05:42:55;19.80;99.90
24518;DHT22;12678;51.336;12.406;2022-09-09T05:45:24;19.70;99.90
24518;DHT22;12678;51.336;12.406;2022-09-09T05:47:53;19.90;99.90
24518;DHT22;12678;51.336;12.406;2022-09-09T05:50:19;20.00;99.90
24518;DHT22;12678;51.336;12.406;2022-09-09T05:52:44;20.00;99.90
24518;DHT22;12678;51.336;12.406;2022-09-09T05:55:10;20.10;99.90
24518;DHT22;12678;51.336;12.406;2022-09-09T05:57:35;20.00;99.90
24518;DHT22;12678;51.336;12.406;2022-09-09T06:00:01;20.00;99.90
24518;DHT22;12678;51.336;12.406;2022-09-09T06:02:26;20.10;99.90
24518;DHT22;12678;51.336;12.406;2022-09-09T06:04:52;20.10;99.90
24518;DHT22;12678;51.336;12.406;2022-09-09T06:07:17;20.20;99.90
24518;DHT22;12678;51.336;12.406;2022-09-09T06:09:43;20.30;99.90
24518;DHT22;12678;51.336;12.406;2022-09-09T06:12:08;20.30;99.90
24518;DHT22;12678;51.336;12.406;2022-09-09T06:14:34;20.40;99.90
24518;DHT22;12678;51.336;12.406;2022-09-09T06:16:59;20.10;99.90
24518;DHT22;12678;51.336;12.406;2022-09-09T06:19:25;20.30;99.90
24518;DHT22;12678;51.336;12.406;2022-09-09T06:21:51;20.10;99.90
24518;DHT22;12678;51.336;12.406;2022-09-09T06:24:17;20.00;99.90
24518;DHT22;12678;51.336;12.406;2022-09-09T06:26:44;19.60;99.90
24518;DHT22;12678;51.336;12.406;2022-09-09T06:29:10;19.70;99.90
24518;DHT22;12678;51.336;12.406;2022-09-09T06:31:36;20.00;99.90
24518;DHT22;12678;51.336;12.406;2022-09-09T06:34:03;19.90;99.90
24518;DHT22;12678;51.336;12.406;2022-09-09T06:36:30;20.00;99.90
24518;DHT22;12678;51.336;12.406;2022-09-09T06:38:56;20.00;99.90
24518;DHT22;12678;51.336;12.406;2022-09-09T06:41:22;20.00;99.90
24518;DHT22;12678;51.336;12.406;2022-09-09T06:43:48;20.00;99.90
24518;DHT22;12678;51.336;12.406;2022-09-09T06:46:18;20.10;99.90
24518;DHT22;12678;51.336;12.406;2022-09-09T06:48:44;19.90;99.90
24518;DHT22;12678;51.336;12.406;2022-09-09T06:53:36;19.50;99.90
24518;DHT22;12678;51.336;12.406;2022-09-09T06:56:25;19.40;99.90
24518;DHT22;12678;51.336;12.406;2022-09-09T06:58:49;19.30;99.90
24518;DHT22;12678;51.336;12.406;2022-09-09T07:01:16;19.30;99.90
24518;DHT22;12678;51.336;12.406;2022-09-09T07:03:42;19.50;99.90
24518;DHT22;12678;51.336;12.406;2022-09-09T07:06:14;19.80;99.90
24518;DHT22;12678;51.336;12.406;2022-09-09T07:08:40;20.10;99.90
24518;DHT22;12678;51.336;12.406;2022-09-09T07:11:07;20.60;99.90
24518;DHT22;12678;51.336;12.406;2022-09-09T07:13:32;20.60;99.90
24518;DHT22;12678;51.336;12.406;2022-09-09T07:18:30;20.70;99.90
24518;DHT22;12678;51.336;12.406;2022-09-09T07:20:56;20.90;99.90
24518;DHT22;12678;51.336;12.406;2022-09-09T07:23:22;21.00;99.90
24518;DHT22;12678;51.336;12.406;2022-09-09T07:25:48;21.20;99.90
24518;DHT22;12678;51.336;12.406;2022-09-09T07:28:14;21.20;99.90
24518;DHT22;12678;51.336;12.406;2022-09-09T07:30:39;21.30;99.90
24518;DHT22;12678;51.336;12.406;2022-09-09T07:33:05;21.40;99.90
24518;DHT22;12678;51.336;12.406;2022-09-09T07:35:31;21.50;99.90
24518;DHT22;12678;51.336;12.406;2022-09-09T07:37:56;21.60;99.90
24518;DHT22;12678;51.336;12.406;2022-09-09T07:40:23;21.70;99.90
24518;DHT22;12678;51.336;12.406;2022-09-09T07:42:49;21.80;99.90
24518;DHT22;12678;51.336;12.406;2022-09-09T07:45:15;22.10;99.90
24518;DHT22;12678;51.336;12.406;2022-09-09T07:47:42;22.30;99.90
24518;DHT22;12678;51.336;12.406;2022-09-09T07:50:08;22.40;99.90
24518;DHT22;12678;51.336;12.406;2022-09-09T07:52:34;22.50;99.90
24518;DHT22;12678;51.336;12.406;2022-09-09T07:55:00;22.60;99.90
24518;DHT22;12678;51.336;12.406;2022-09-09T07:57:28;22.80;99.90
24518;DHT22;12678;51.336;12.406;2022-09-09T07:59:55;23.20;99.90
24518;DHT22;12678;51.336;12.406;2022-09-09T08:02:22;23.20;99.90
24518;DHT22;12678;51.336;12.406;2022-09-09T08:04:48;23.10;99.90
24518;DHT22;12678;51.336;12.406;2022-09-09T08:07:13;23.50;99.90
24518;DHT22;12678;51.336;12.406;2022-09-09T08:09:39;24.10;99.90
24518;DHT22;12678;51.336;12.406;2022-09-09T08:12:04;24.30;99.90
24518;DHT22;12678;51.336;12.406;2022-09-09T08:14:31;24.50;99.90
24518;DHT22;12678;51.336;12.406;2022-09-09T08:16:57;24.60;99.90
24518;DHT22;12678;51.336;12.406;2022-09-09T08:19:23;24.80;99.90
24518;DHT22;12678;51.336;12.406;2022-09-09T08:21:49;24.70;99.90
24518;DHT22;12678;51.336;12.406;2022-09-09T08:24:14;24.40;99.90
24518;DHT22;12678;51.336;12.406;2022-09-09T08:26:41;24.00;99.90
24518;DHT22;12678;51.336;12.406;2022-09-09T08:29:07;23.60;99.90
24518;DHT22;12678;51.336;12.406;2022-09-09T08:31:34;23.30;99.90
24518;DHT22;12678;51.336;12.406;2022-09-09T08:34:00;23.20;99.90
24518;DHT22;12678;51.336;12.406;2022-09-09T08:36:28;23.50;99.90
24518;DHT22;12678;51.336;12.406;2022-09-09T08:38:56;24.00;99.90
24518;DHT22;12678;51.336;12.406;2022-09-09T08:49:13;24.90;99.90
24518;DHT22;12678;51.336;12.406;2022-09-09T08:51:40;25.20;99.90
24518;DHT22;12678;51.336;12.406;2022-09-09T08:54:06;25.40;99.90
24518;DHT22;12678;51.336;12.406;2022-09-09T08:56:32;25.50;99.90
24518;DHT22;12678;51.336;12.406;2022-09-09T08:58:59;25.60;99.90
24518;DHT22;12678;51.336;12.406;2022-09-09T09:04:20;25.50;99.90
24518;DHT22;12678;51.336;12.406;2022-09-09T09:09:30;25.40;99.90
24518;DHT22;12678;51.336;12.406;2022-09-09T09:11:58;25.30;99.90
24518;DHT22;12678;51.336;12.406;2022-09-09T09:14:27;25.30;99.90
24518;DHT22;12678;51.336;12.406;2022-09-09T09:19:19;25.60;99.90
24518;DHT22;12678;51.336;12.406;2022-09-09T09:21:50;25.60;99.90
24518;DHT22;12678;51.336;12.406;2022-09-09T09:24:18;25.60;99.90
24518;DHT22;12678;51.336;12.406;2022-09-09T09:26:44;25.60;99.80
24518;DHT22;12678;51.336;12.406;2022-09-09T09:29:12;25.60;99.90
24518;DHT22;12678;51.336;12.406;2022-09-09T09:31:37;25.70;99.70
24518;DHT22;12678;51.336;12.406;2022-09-09T09:34:03;25.70;99.80
24518;DHT22;12678;51.336;12.406;2022-09-09T09:36:39;25.60;99.50
24518;DHT22;12678;51.336;12.406;2022-09-09T09:39:06;25.50;99.70
24518;DHT22;12678;51.336;12.406;2022-09-09T09:43:59;25.20;99.70
24518;DHT22;12678;51.336;12.406;2022-09-09T09:46:26;24.90;99.90
24518;DHT22;12678;51.336;12.406;2022-09-09T09:48:58;24.80;99.90
24518;DHT22;12678;51.336;12.406;2022-09-09T09:51:25;24.80;99.90
24518;DHT22;12678;51.336;12.406;2022-09-09T09:53:51;24.60;99.90
24518;DHT22;12678;51.336;12.406;2022-09-09T09:56:26;24.50;99.90
24518;DHT22;12678;51.336;12.406;2022-09-09T09:58:52;24.50;99.90
24518;DHT22;12678;51.336;12.406;2022-09-09T10:01:23;24.40;99.90
24518;DHT22;12678;51.336;12.406;2022-09-09T10:03:50;24.30;99.90
24518;DHT22;12678;51.336;12.406;2022-09-09T10:06:16;24.20;99.90
24518;DHT22;12678;51.336;12.406;2022-09-09T10:08:45;24.20;99.90
24518;DHT22;12678;51.336;12.406;2022-09-09T10:18:50;24.10;99.90
24518;DHT22;12678;51.336;12.406;2022-09-09T10:21:30;23.90;99.90
24518;DHT22;12678;51.336;12.406;2022-09-09T10:26:41;23.90;99.90
24518;DHT22;12678;51.336;12.406;2022-09-09T10:31:48;24.20;99.90
24518;DHT22;12678;51.336;12.406;2022-09-09T10:36:52;24.00;99.90
24518;DHT22;12678;51.336;12.406;2022-09-09T10:42:01;24.10;99.90
24518;DHT22;12678;51.336;12.406;2022-09-09T10:49:46;24.10;99.90
24518;DHT22;12678;51.336;12.406;2022-09-09T10:52:19;24.00;99.90
24518;DHT22;12678;51.336;12.406;2022-09-09T10:59:54;24.10;99.90
24518;DHT22;12678;51.336;12.406;2022-09-09T11:02:25;24.10;99.90
24518;DHT22;12678;51.336;12.406;2022-09-09T11:07:33;24.10;99.90
24518;DHT22;12678;51.336;12.406;2022-09-09T11:10:02;24.10;99.90
24518;DHT22;12678;51.336;12.406;2022-09-09T11:12:31;23.90;99.90
24518;DHT22;12678;51.336;12.406;2022-09-09T11:15:03;24.00;99.90
24518;DHT22;12678;51.336;12.406;2022-09-09T11:17:33;24.10;99.90
24518;DHT22;12678;51.336;12.406;2022-09-09T11:20:01;24.00;99.90
24518;DHT22;12678;51.336;12.406;2022-09-09T11:25:14;23.90;99.90
24518;DHT22;12678;51.336;12.406;2022-09-09T11:27:50;23.80;99.90
24518;DHT22;12678;51.336;12.406;2022-09-09T11:30:22;23.70;99.90
24518;DHT22;12678;51.336;12.406;2022-09-09T11:36:09;23.70;99.90
24518;DHT22;12678;51.336;12.406;2022-09-09T11:38:32;23.70;99.90
24518;DHT22;12678;51.336;12.406;2022-09-09T11:41:06;23.80;99.90
24518;DHT22;12678;51.336;12.406;2022-09-09T11:43:41;23.90;99.90
24518;DHT22;12678;51.336;12.406;2022-09-09T11:46:06;23.90;99.90
24518;DHT22;12678;51.336;12.406;2022-09-09T11:48:34;23.90;99.90
24518;DHT22;12678;51.336;12.406;2022-09-09T11:51:02;23.80;99.90
24518;DHT22;12678;51.336;12.406;2022-09-09T11:53:28;23.70;99.90
24518;DHT22;12678;51.336;12.406;2022-09-09T11:56:00;23.60;99.90
24518;DHT22;12678;51.336;12.406;2022-09-09T11:58:27;23.50;99.90
24518;DHT22;12678;51.336;12.406;2022-09-09T12:00:54;23.40;99.90
24518;DHT22;12678;51.336;12.406;2022-09-09T12:06:41;23.40;99.90
24518;DHT22;12678;51.336;12.406;2022-09-09T12:09:06;23.50;99.90
24518;DHT22;12678;51.336;12.406;2022-09-09T12:11:33;23.50;99.90
24518;DHT22;12678;51.336;12.406;2022-09-09T12:13:59;23.60;99.90
24518;DHT22;12678;51.336;12.406;2022-09-09T12:19:02;23.70;99.90
24518;DHT22;12678;51.336;12.406;2022-09-09T12:24:35;23.70;99.90
24518;DHT22;12678;51.336;12.406;2022-09-09T12:32:25;23.50;99.90
24518;DHT22;12678;51.336;12.406;2022-09-09T12:34:53;23.50;99.90
24518;DHT22;12678;51.336;12.406;2022-09-09T12:39:54;23.40;99.90
24518;DHT22;12678;51.336;12.406;2022-09-09T12:42:20;23.40;99.90
24518;DHT22;12678;51.336;12.406;2022-09-09T12:44:56;23.50;99.90
24518;DHT22;12678;51.336;12.406;2022-09-09T12:47:24;23.60;99.90
24518;DHT22;12678;51.336;12.406;2022-09-09T12:49:51;23.70;99.90
24518;DHT22;12678;51.336;12.406;2022-09-09T12:52:19;23.80;99.90
24518;DHT22;12678;51.336;12.406;2022-09-09T12:54:46;23.90;99.90
24518;DHT22;12678;51.336;12.406;2022-09-09T12:57:12;23.90;99.90
24518;DHT22;12678;51.336;12.406;2022-09-09T12:59:39;23.80;99.70
24518;DHT22;12678;51.336;12.406;2022-09-09T13:02:16;23.80;99.90
24518;DHT22;12678;51.336;12.406;2022-09-09T13:04:42;23.80;99.90
24518;DHT22;12678;51.336;12.406;2022-09-09T13:07:10;23.90;99.90
24518;DHT22;12678;51.336;12.406;2022-09-09T13:09:37;23.90;99.90
24518;DHT22;12678;51.336;12.406;2022-09-09T13:12:02;24.00;99.90
24518;DHT22;12678;51.336;12.406;2022-09-09T13:14:31;23.90;99.90
24518;DHT22;12678;51.336;12.406;2022-09-09T13:17:00;23.80;99.90
24518;DHT22;12678;51.336;12.406;2022-09-09T13:19:28;23.80;99.50
24518;DHT22;12678;51.336;12.406;2022-09-09T13:21:54;23.60;98.90
24518;DHT22;12678;51.336;12.406;2022-09-09T13:26:54;23.40;99.90
24518;DHT22;12678;51.336;12.406;2022-09-09T13:29:21;23.30;99.90
24518;DHT22;12678;51.336;12.406;2022-09-09T13:31:47;23.30;99.90
24518;DHT22;12678;51.336;12.406;2022-09-09T13:34:27;23.20;99.90
24518;DHT22;12678;51.336;12.406;2022-09-09T13:36:54;23.20;99.90
24518;DHT22;12678;51.336;12.406;2022-09-09T13:39:22;23.10;99.90
24518;DHT22;12678;51.336;12.406;2022-09-09T13:41:48;23.00;99.90
24518;DHT22;12678;51.336;12.406;2022-09-09T13:44:17;23.00;99.90
24518;DHT22;12678;51.336;12.406;2022-09-09T13:46:43;23.10;99.90
24518;DHT22;12678;51.336;12.406;2022-09-09T13:51:42;23.20;99.90
24518;DHT22;12678;51.336;12.406;2022-09-09T13:54:10;23.20;99.90
24518;DHT22;12678;51.336;12.406;2022-09-09T13:56:37;23.10;99.90
24518;DHT22;12678;51.336;12.406;2022-09-09T13:59:03;23.00;99.90
24518;DHT22;12678;51.336;12.406;2022-09-09T14:01:29;23.00;99.90
24518;DHT22;12678;51.336;12.406;2022-09-09T14:03:55;22.90;99.90
24518;DHT22;12678;51.336;12.406;2022-09-09T23:14:37;22.70;99.90
24518;DHT22;12678;51.336;12.406;2022-09-09T23:17:03;17.50;99.90
24518;DHT22;12678;51.336;12.406;2022-09-09T23:31:38;17.20;99.90
24518;DHT22;12678;51.336;12.406;2022-09-09T23:34:04;16.60;99.90
24518;DHT22;12678;51.336;12.406;2022-09-09T23:36:30;16.60;99.90
24518;DHT22;12678;51.336;12.406;2022-09-09T23:38:59;16.60;99.90
24518;DHT22;12678;51.336;12.406;2022-09-09T23:41:27;16.70;99.90
24518;DHT22;12678;51.336;12.406;2022-09-09T23:43:52;16.80;99.90
24518;DHT22;12678;51.336;12.406;2022-09-09T23:46:18;16.70;99.90
24518;DHT22;12678;51.336;12.406;2022-09-09T23:48:44;16.60;99.90
24518;DHT22;12678;51.336;12.406;2022-09-09T23:51:10;16.70;99.90
24518;DHT22;12678;51.336;12.406;2022-09-09T23:53:45;17.00;99.90
24518;DHT22;12678;51.336;12.406;2022-09-09T23:56:16;17.30;99.90
24518;DHT22;12678;51.336;12.406;2022-09-09T23:58:41;17.50;99.90
